Crivitz, WI (54114)

1:35 AM CDT on October 01, 2016 (GMT -0500)
Athelstane Township | | Change Station

Elev 966 ft 45.40 °N, 88.12 °W | Updated 1 second ago

Overcast
Overcast
55.4 °F
Feels Like 55.4 °F
N
0.0
Wind Variable Wind from East
Gusts 0.0 mph

Today
High -- | Low -- °F
--% Chance of Precip.
Yesterday
High -- | Low -- °F
Precip. -- in
Pressure 30.24 in
Visibility 10.0 miles
Clouds Overcast 9000 ft
Dew Point 52 °F
Humidity 88%
Rainfall 0.00 in
Snow Depth Not available.
6:51 AM 6:32 PM
New Moon, 0% visible
METAR KMNM 010556Z AUTO 07008KT 10SM OVC090 17/13 A3019 RMK AO2 SLP240 T01670133 10172 20167 401780122 58008
Pressure 30.24 in
Visibility 10.0 miles
Clouds Overcast 9000 ft
Dew Point 52 °F
Humidity 88%
Rainfall 0.00 in
Snow Depth Not available.
6:51 AM 6:32 PM
New Moon, 0% visible
METAR KMNM 010556Z AUTO 07008KT 10SM OVC090 17/13 A3019 RMK AO2 SLP240 T01670133 10172 20167 401780122 58008

10-Day Weather Forecast

Almanac

Astronomy

Oct. 01, 2016 Rise Set
Actual Time
Civil Twilight
Nautical Twilight
Astronomical Twilight
Moon
Length of Visible Light
Length of Day
Tomorrow will be .
, % of the Moon is Illuminated

Today's Extremes

State Highs State Lows

Community

WunderPhotos

Upload Photos

1,942,898 photos uploaded!

WunderBlog® & News

Nearby

Air Quality

  Air Quality AQ Index Pollutant
Not available.

Snow Depth

Station Depth Elevation

Earthquake Activity

City Distance Mag. Time & Date
Minimum magnitude displayed is 2.5.

Coastal Water Temperatures

Place Temperature

Stations

Nearby Weather Stations

Station Location Temp. Windchill Dew Point Humidity Wind Precip. Elev Updated Type
                   

Watches & Warnings

There are currently no watches in effect.